Time;durP1;ratioP1;P1;durP2;ratioP2;P2;SDS_P1;SDS_P2;PMS_P1;PMS_P2;Temp;Humidity;BMP_temperature;BMP_pressure;BME280_temperature;BME280_humidity;BME280_pressure;Samples;Min_cycle;Max_cycle;Signal;HPM_P1;HPM_P2
2023/04/21 00:02:14;;;;;;;38.20;21.70;;;;;;;;;;107946;1247;25201;-78
2023/04/21 00:04:44;;;;;;;41.30;22.30;;;;;;;;;;110787;1247;22224;-79
2023/04/21 00:07:10;;;;;;;41.20;19.30;;;;;;;;;;109034;1247;24182;-79
2023/04/21 00:09:37;;;;;;;38.60;19.60;;;;;;;;;;107894;1248;25310;-79
2023/04/21 00:12:04;;;;;;;41.70;19.90;;;;;;;;;;107711;1248;22574;-78
2023/04/21 00:14:30;;;;;;;35.60;19.00;;;;;;;;;;107919;1247;24186;-78
2023/04/21 00:16:58;;;;;;;32.00;18.70;;;;;;;;;;107947;1247;22572;-79
2023/04/21 00:19:25;;;;;;;37.50;20.10;;;;;;;;;;107964;1247;22645;-79
2023/04/21 00:21:57;;;;;;;34.80;17.70;;;;;;;;;;107909;1248;23848;-78
2023/04/21 00:24:26;;;;;;;30.40;17.50;;;;;;;;;;107879;1252;25399;-79
2023/04/21 00:26:53;;;;;;;30.00;17.80;;;;;;;;;;107878;1247;24337;-79
2023/04/21 00:29:19;;;;;;;34.10;19.20;;;;;;;;;;107970;1248;24184;-81
2023/04/21 00:31:45;;;;;;;36.30;18.40;;;;;;;;;;108010;1247;22550;-78
2023/04/21 00:34:12;;;;;;;35.00;20.30;;;;;;;;;;108029;1247;22514;-81
2023/04/21 00:36:38;;;;;;;40.10;21.30;;;;;;;;;;108694;1247;22522;-79
2023/04/21 00:39:05;;;;;;;35.10;20.80;;;;;;;;;;108039;1247;25387;-79
2023/04/21 00:41:31;;;;;;;44.30;21.90;;;;;;;;;;108011;1248;22552;-79
2023/04/21 00:44:01;;;;;;;35.40;21.30;;;;;;;;;;107921;1250;22537;-78
2023/04/21 00:46:28;;;;;;;38.30;21.80;;;;;;;;;;108040;1247;22720;-79
2023/04/21 00:48:54;;;;;;;42.10;22.90;;;;;;;;;;108139;1247;22542;-79
2023/04/21 00:51:20;;;;;;;35.10;19.90;;;;;;;;;;108049;1251;22550;-79
2023/04/21 00:53:47;;;;;;;36.20;18.60;;;;;;;;;;108058;1251;22531;-79
2023/04/21 00:56:13;;;;;;;40.50;20.00;;;;;;;;;;107990;1247;22868;-79
2023/04/21 00:58:40;;;;;;;32.00;19.20;;;;;;;;;;107873;1247;25008;-79
2023/04/21 01:01:07;;;;;;;34.60;18.90;;;;;;;;;;107910;1248;22612;-78
2023/04/21 01:03:33;;;;;;;37.60;21.70;;;;;;;;;;110500;1247;22299;-79
2023/04/21 01:05:59;;;;;;;35.60;19.20;;;;;;;;;;111033;1247;22445;-80
2023/04/21 01:08:26;;;;;;;39.40;20.10;;;;;;;;;;111016;1247;22285;-79
2023/04/21 01:10:53;;;;;;;31.70;19.30;;;;;;;;;;110792;1247;23011;-79
2023/04/21 01:13:21;;;;;;;36.10;20.20;;;;;;;;;;111057;1247;22264;-80
2023/04/21 01:15:47;;;;;;;24.80;14.50;;;;;;;;;;111020;1247;23217;-77
2023/04/21 01:18:15;;;;;;;36.40;18.90;;;;;;;;;;110444;1247;24212;-79
2023/04/21 01:20:43;;;;;;;28.80;16.80;;;;;;;;;;107948;1248;25389;-79
2023/04/21 01:23:09;;;;;;;36.00;19.20;;;;;;;;;;111027;1247;22940;-79
2023/04/21 01:25:36;;;;;;;32.30;19.60;;;;;;;;;;111028;1247;23006;-80
2023/04/21 01:28:02;;;;;;;38.00;18.80;;;;;;;;;;111043;1247;22442;-79
2023/04/21 01:30:29;;;;;;;32.40;18.10;;;;;;;;;;111049;1248;22208;-80
2023/04/21 01:32:57;;;;;;;29.90;16.10;;;;;;;;;;111138;1247;22729;-80
2023/04/21 01:35:23;;;;;;;33.30;16.20;;;;;;;;;;111094;1247;22334;-80
2023/04/21 01:37:50;;;;;;;31.00;16.70;;;;;;;;;;111096;1247;22881;-80
2023/04/21 01:40:16;;;;;;;29.50;17.60;;;;;;;;;;111105;1247;22244;-80
2023/04/21 01:42:43;;;;;;;32.40;17.50;;;;;;;;;;111132;1247;22341;-80
2023/04/21 01:45:09;;;;;;;35.10;18.70;;;;;;;;;;111170;1247;22231;-80
2023/04/21 01:47:36;;;;;;;33.10;17.40;;;;;;;;;;111093;1248;22496;-80
2023/04/21 01:50:02;;;;;;;28.90;17.00;;;;;;;;;;111156;1247;22262;-79
2023/04/21 01:52:29;;;;;;;31.50;17.20;;;;;;;;;;111079;1248;22835;-80
2023/04/21 01:54:55;;;;;;;30.70;18.90;;;;;;;;;;109611;1248;22623;-79
2023/04/21 01:57:22;;;;;;;30.60;18.00;;;;;;;;;;107922;1248;22849;-80
2023/04/21 01:59:48;;;;;;;30.80;19.10;;;;;;;;;;107809;1247;148434;-80
2023/04/21 02:02:15;;;;;;;36.60;21.40;;;;;;;;;;107931;1247;24183;-80
2023/04/21 02:04:41;;;;;;;30.60;19.50;;;;;;;;;;107868;1248;23225;-78
2023/04/21 02:07:07;;;;;;;33.50;21.50;;;;;;;;;;107844;1247;23313;-78
2023/04/21 02:09:34;;;;;;;32.50;20.30;;;;;;;;;;107931;1247;25392;-78
2023/04/21 02:12:01;;;;;;;39.10;20.70;;;;;;;;;;107899;1248;24368;-78
2023/04/21 02:14:27;;;;;;;30.60;19.20;;;;;;;;;;107926;1248;25389;-79
2023/04/21 02:16:54;;;;;;;35.60;21.60;;;;;;;;;;107880;1248;22565;-79
2023/04/21 02:19:21;;;;;;;38.60;23.10;;;;;;;;;;107933;1250;22650;-80
2023/04/21 02:21:47;;;;;;;40.70;23.70;;;;;;;;;;107874;1247;22521;-79
2023/04/21 02:24:14;;;;;;;40.20;21.30;;;;;;;;;;107925;1250;22540;-81
2023/04/21 02:26:40;;;;;;;37.80;23.10;;;;;;;;;;107937;1247;23107;-79
2023/04/21 02:29:06;;;;;;;43.20;25.70;;;;;;;;;;108004;1247;25373;-79
2023/04/21 02:31:33;;;;;;;50.40;26.30;;;;;;;;;;108040;1247;23825;-78
2023/04/21 02:33:59;;;;;;;44.00;25.30;;;;;;;;;;107878;1247;24199;-79
2023/04/21 02:36:26;;;;;;;43.90;26.50;;;;;;;;;;107899;1252;25322;-80
2023/04/21 02:38:52;;;;;;;49.80;26.20;;;;;;;;;;107878;1247;24403;-79
2023/04/21 02:41:18;;;;;;;40.00;23.20;;;;;;;;;;107851;1248;22550;-79
2023/04/21 02:43:45;;;;;;;41.30;23.10;;;;;;;;;;107891;1247;25485;-78
2023/04/21 02:46:11;;;;;;;46.50;23.50;;;;;;;;;;107921;1247;22526;-79
2023/04/21 02:48:38;;;;;;;46.40;24.90;;;;;;;;;;107909;1247;22522;-79
2023/04/21 02:51:04;;;;;;;39.90;24.90;;;;;;;;;;107905;1247;22517;-79
2023/04/21 02:53:31;;;;;;;44.70;23.60;;;;;;;;;;107853;1247;22598;-79
2023/04/21 02:55:57;;;;;;;44.20;21.80;;;;;;;;;;107914;1253;22517;-78
2023/04/21 02:58:23;;;;;;;43.60;24.50;;;;;;;;;;107897;1247;22535;-79
2023/04/21 03:00:50;;;;;;;39.30;21.90;;;;;;;;;;107930;1247;24898;-79
2023/04/21 03:03:16;;;;;;;36.80;21.70;;;;;;;;;;107876;1248;23313;-79
2023/04/21 03:05:43;;;;;;;33.40;20.10;;;;;;;;;;107852;1252;22514;-78
2023/04/21 03:08:09;;;;;;;43.00;21.90;;;;;;;;;;107849;1248;25345;-80
2023/04/21 03:10:36;;;;;;;32.00;20.10;;;;;;;;;;107898;1252;25271;-79
2023/04/21 03:13:02;;;;;;;46.20;19.80;;;;;;;;;;107886;1247;24874;-80
2023/04/21 03:15:29;;;;;;;38.40;19.30;;;;;;;;;;107965;1248;22682;-80
2023/04/21 03:17:56;;;;;;;28.70;18.40;;;;;;;;;;107950;1247;26463;-81
2023/04/21 03:20:22;;;;;;;41.00;20.50;;;;;;;;;;107940;1252;22520;-79
2023/04/21 03:22:48;;;;;;;33.70;18.40;;;;;;;;;;107862;1247;22517;-78
2023/04/21 03:25:15;;;;;;;31.70;17.50;;;;;;;;;;107883;1247;22642;-79
2023/04/21 03:27:41;;;;;;;35.00;18.70;;;;;;;;;;109687;1247;22229;-79
2023/04/21 03:30:08;;;;;;;33.10;19.00;;;;;;;;;;111071;1248;22177;-79
2023/04/21 03:32:34;;;;;;;31.50;18.80;;;;;;;;;;111116;1247;22369;-80
2023/04/21 03:35:01;;;;;;;39.10;22.00;;;;;;;;;;111099;1248;22129;-80
2023/04/21 03:37:27;;;;;;;42.70;21.50;;;;;;;;;;108482;1248;23409;-79
2023/04/21 03:39:54;;;;;;;45.90;22.90;;;;;;;;;;108085;1247;22524;-79
2023/04/21 03:42:20;;;;;;;38.20;19.90;;;;;;;;;;108015;1248;23287;-79
2023/04/21 03:44:46;;;;;;;37.90;19.70;;;;;;;;;;108043;1248;24388;-79
2023/04/21 03:47:13;;;;;;;37.40;20.20;;;;;;;;;;108091;1248;25424;-79
2023/04/21 03:49:39;;;;;;;37.50;20.70;;;;;;;;;;108065;1247;22524;-78
2023/04/21 03:52:05;;;;;;;39.20;21.00;;;;;;;;;;108079;1248;24420;-78
2023/04/21 03:54:32;;;;;;;35.00;22.10;;;;;;;;;;108074;1247;24535;-80
2023/04/21 03:56:58;;;;;;;36.60;19.50;;;;;;;;;;108013;1248;22760;-79
2023/04/21 03:59:25;;;;;;;35.70;19.50;;;;;;;;;;107852;1247;22542;-78
2023/04/21 04:01:51;;;;;;;37.80;22.20;;;;;;;;;;107928;1247;25213;-78
2023/04/21 04:04:17;;;;;;;38.10;20.80;;;;;;;;;;107894;1247;24783;-79
2023/04/21 04:06:44;;;;;;;44.10;22.60;;;;;;;;;;107856;1247;23177;-78
2023/04/21 04:09:10;;;;;;;49.10;24.50;;;;;;;;;;107881;1247;22537;-79
2023/04/21 04:11:36;;;;;;;45.60;24.90;;;;;;;;;;107912;1247;25400;-78
2023/04/21 04:14:03;;;;;;;47.70;25.80;;;;;;;;;;107856;1247;22610;-79
2023/04/21 04:16:29;;;;;;;46.00;25.20;;;;;;;;;;107850;1248;22518;-78
2023/04/21 04:18:56;;;;;;;55.50;26.10;;;;;;;;;;107827;1247;22515;-79
2023/04/21 04:21:22;;;;;;;44.60;24.40;;;;;;;;;;107918;1253;22524;-79
2023/04/21 04:23:50;;;;;;;44.50;23.20;;;;;;;;;;107852;1247;24427;-78
2023/04/21 04:26:17;;;;;;;39.80;22.10;;;;;;;;;;108056;1252;22517;-78
2023/04/21 04:28:44;;;;;;;47.80;23.20;;;;;;;;;;109018;1248;24365;-79
2023/04/21 04:31:12;;;;;;;43.40;21.40;;;;;;;;;;108067;1248;24285;-80
2023/04/21 04:33:42;;;;;;;45.20;24.50;;;;;;;;;;108054;1248;24112;-79
2023/04/21 04:36:10;;;;;;;35.50;21.40;;;;;;;;;;109021;1248;25369;-79
2023/04/21 04:38:37;;;;;;;36.30;19.60;;;;;;;;;;108002;1248;22518;-79
2023/04/21 04:41:03;;;;;;;47.00;23.50;;;;;;;;;;108049;1247;22630;-79
2023/04/21 04:43:35;;;;;;;46.00;23.10;;;;;;;;;;108076;1248;22639;-79
2023/04/21 04:46:02;;;;;;;41.30;25.10;;;;;;;;;;107940;1248;22563;-79
2023/04/21 04:48:29;;;;;;;40.00;22.00;;;;;;;;;;108067;1251;26071;-80
2023/04/21 04:50:55;;;;;;;41.10;23.50;;;;;;;;;;108064;1248;24189;-79
2023/04/21 04:53:22;;;;;;;33.10;19.80;;;;;;;;;;107686;1248;23359;-79
2023/04/21 04:55:48;;;;;;;49.60;22.20;;;;;;;;;;108038;1248;22524;-79
2023/04/21 04:58:15;;;;;;;38.00;21.30;;;;;;;;;;107828;1248;22520;-79
2023/04/21 05:00:41;;;;;;;34.60;18.30;;;;;;;;;;107660;1247;22559;-79
2023/04/21 05:03:08;;;;;;;36.60;18.00;;;;;;;;;;107839;1247;22512;-79
2023/04/21 05:05:34;;;;;;;46.70;20.40;;;;;;;;;;107871;1252;25390;-79
2023/04/21 05:08:00;;;;;;;35.00;18.10;;;;;;;;;;109155;1248;22534;-78
2023/04/21 05:10:27;;;;;;;46.30;20.70;;;;;;;;;;107879;1253;22549;-78
2023/04/21 05:12:53;;;;;;;31.90;19.00;;;;;;;;;;107849;1252;22543;-79
2023/04/21 05:15:21;;;;;;;39.60;21.40;;;;;;;;;;107918;1247;22525;-78
2023/04/21 05:17:47;;;;;;;32.70;20.60;;;;;;;;;;107926;1248;22995;-80
2023/04/21 05:20:14;;;;;;;37.60;20.90;;;;;;;;;;107882;1251;23078;-79
2023/04/21 05:22:40;;;;;;;48.20;24.40;;;;;;;;;;107823;1252;22628;-79
2023/04/21 05:25:06;;;;;;;37.00;21.20;;;;;;;;;;107867;1248;26584;-80
2023/04/21 05:27:33;;;;;;;41.30;22.60;;;;;;;;;;107840;1248;25323;-80
2023/04/21 05:29:59;;;;;;;43.80;23.00;;;;;;;;;;107719;1253;25098;-78
2023/04/21 05:32:26;;;;;;;41.40;23.70;;;;;;;;;;108038;1253;24892;-80
2023/04/21 05:34:52;;;;;;;43.80;24.20;;;;;;;;;;107745;1253;22529;-79
2023/04/21 05:37:18;;;;;;;49.80;26.60;;;;;;;;;;107675;1251;23285;-79
2023/04/21 05:39:45;;;;;;;46.40;26.30;;;;;;;;;;107708;1253;24247;-79
2023/04/21 05:42:11;;;;;;;48.60;23.40;;;;;;;;;;107974;1247;22519;-79
2023/04/21 05:44:38;;;;;;;36.50;21.90;;;;;;;;;;107900;1247;25198;-78
2023/04/21 05:47:05;;;;;;;41.60;22.20;;;;;;;;;;107631;1250;24455;-79
2023/04/21 05:49:31;;;;;;;40.40;21.00;;;;;;;;;;108315;1251;24334;-81
2023/04/21 05:51:58;;;;;;;48.70;21.10;;;;;;;;;;107909;1247;22522;-82
2023/04/21 05:54:24;;;;;;;42.00;23.60;;;;;;;;;;107894;1248;25217;-79
2023/04/21 05:56:50;;;;;;;42.70;23.00;;;;;;;;;;108004;1248;25281;-79
2023/04/21 05:59:17;;;;;;;36.40;21.30;;;;;;;;;;107973;1247;26776;-80
2023/04/21 06:01:43;;;;;;;41.30;21.10;;;;;;;;;;108394;1247;26564;-80
2023/04/21 06:04:10;;;;;;;39.80;20.50;;;;;;;;;;108032;1248;22628;-79
2023/04/21 06:06:36;;;;;;;35.60;18.80;;;;;;;;;;108319;1248;22518;-79
2023/04/21 06:09:03;;;;;;;34.40;18.60;;;;;;;;;;108203;1252;22558;-80
2023/04/21 06:11:29;;;;;;;48.80;27.20;;;;;;;;;;108276;1247;24178;-81
2023/04/21 06:13:57;;;;;;;28.10;16.00;;;;;;;;;;107979;1247;24008;-80
2023/04/21 06:16:24;;;;;;;33.30;15.20;;;;;;;;;;108313;1247;22533;-79
2023/04/21 06:18:50;;;;;;;36.70;15.20;;;;;;;;;;108436;1248;22727;-80
2023/04/21 06:21:17;;;;;;;18.90;12.40;;;;;;;;;;108165;1248;25275;-81
2023/04/21 06:23:43;;;;;;;30.10;11.80;;;;;;;;;;108046;1248;23257;-79
2023/04/21 06:26:09;;;;;;;23.30;12.00;;;;;;;;;;109029;1247;22616;-79
2023/04/21 06:28:36;;;;;;;24.70;11.80;;;;;;;;;;109366;1248;22533;-81
2023/04/21 06:31:02;;;;;;;27.10;11.20;;;;;;;;;;109033;1247;22988;-81
2023/04/21 06:33:28;;;;;;;20.40;10.40;;;;;;;;;;108838;1251;22529;-79
2023/04/21 06:35:55;;;;;;;17.40;9.70;;;;;;;;;;108929;1247;22611;-79
2023/04/21 06:38:21;;;;;;;23.20;8.70;;;;;;;;;;109176;1247;23687;-81
2023/04/21 06:40:48;;;;;;;25.80;10.10;;;;;;;;;;109039;1248;22534;-79
2023/04/21 06:43:15;;;;;;;19.30;10.00;;;;;;;;;;108888;1247;24242;-79
2023/04/21 06:45:41;;;;;;;22.10;9.80;;;;;;;;;;108935;1251;22548;-81
2023/04/21 06:48:07;;;;;;;17.80;9.70;;;;;;;;;;108743;1247;22585;-79
2023/04/21 06:50:34;;;;;;;21.30;9.20;;;;;;;;;;108768;1248;22665;-79
2023/04/21 06:53:00;;;;;;;15.30;8.90;;;;;;;;;;108962;1251;25389;-79
2023/04/21 06:55:27;;;;;;;14.70;8.90;;;;;;;;;;109045;1251;22963;-81
2023/04/21 06:57:53;;;;;;;18.80;9.40;;;;;;;;;;108681;1247;25309;-81
2023/04/21 07:00:20;;;;;;;20.20;8.80;;;;;;;;;;108856;1248;22540;-81
2023/04/21 07:02:46;;;;;;;17.70;8.70;;;;;;;;;;108818;1248;22538;-81
2023/04/21 07:05:12;;;;;;;14.70;9.20;;;;;;;;;;109244;1248;23166;-77
2023/04/21 07:07:39;;;;;;;18.00;7.60;;;;;;;;;;108393;1248;22565;-79
2023/04/21 07:10:06;;;;;;;23.80;10.20;;;;;;;;;;108372;1248;23238;-79
2023/04/21 07:12:32;;;;;;;18.20;8.30;;;;;;;;;;108419;1248;25401;-79
2023/04/21 07:14:58;;;;;;;13.70;7.60;;;;;;;;;;108322;1247;22540;-79
2023/04/21 07:17:25;;;;;;;15.20;8.70;;;;;;;;;;108159;1247;24214;-76
2023/04/21 07:19:52;;;;;;;18.60;8.50;;;;;;;;;;109457;1248;22281;-78
2023/04/21 07:22:18;;;;;;;17.60;8.30;;;;;;;;;;109419;1248;23242;-79
2023/04/21 07:24:44;;;;;;;14.70;7.30;;;;;;;;;;108746;1250;22562;-79
2023/04/21 07:27:11;;;;;;;18.60;7.40;;;;;;;;;;108402;1247;22515;-79
2023/04/21 07:29:37;;;;;;;15.70;8.30;;;;;;;;;;108196;1248;22721;-79
2023/04/21 07:32:03;;;;;;;21.80;7.40;;;;;;;;;;108135;1248;22547;-79
2023/04/21 07:34:30;;;;;;;13.20;6.90;;;;;;;;;;108111;1247;22623;-79
2023/04/21 07:36:56;;;;;;;15.00;7.70;;;;;;;;;;108210;1248;22519;-79
2023/04/21 07:39:23;;;;;;;16.50;7.90;;;;;;;;;;108172;1248;22564;-79
2023/04/21 07:41:49;;;;;;;23.20;7.10;;;;;;;;;;108044;1252;23278;-79
2023/04/21 07:44:15;;;;;;;19.50;7.20;;;;;;;;;;108038;1251;23301;-79
2023/04/21 07:46:42;;;;;;;22.40;7.40;;;;;;;;;;108070;1251;22534;-80
2023/04/21 07:49:08;;;;;;;17.50;8.40;;;;;;;;;;107995;1248;22521;-79
2023/04/21 07:51:35;;;;;;;16.00;7.80;;;;;;;;;;108009;1248;24248;-79
2023/04/21 07:54:01;;;;;;;14.20;7.80;;;;;;;;;;107944;1248;22544;-79
2023/04/21 07:56:27;;;;;;;21.20;8.30;;;;;;;;;;108156;1248;22536;-79
2023/04/21 07:58:54;;;;;;;13.50;7.50;;;;;;;;;;108063;1252;25326;-79
2023/04/21 08:01:22;;;;;;;20.60;7.30;;;;;;;;;;107958;1248;23086;-79
2023/04/21 08:03:48;;;;;;;14.50;6.80;;;;;;;;;;108001;1248;22705;-80
2023/04/21 08:06:15;;;;;;;14.20;7.70;;;;;;;;;;108214;1249;22527;-79
2023/04/21 08:08:41;;;;;;;13.40;6.80;;;;;;;;;;108088;1253;25261;-78
2023/04/21 08:11:08;;;;;;;12.10;7.30;;;;;;;;;;108000;1247;26430;-84
2023/04/21 08:13:34;;;;;;;18.20;7.60;;;;;;;;;;107982;1249;23077;-84
2023/04/21 08:16:01;;;;;;;20.60;7.70;;;;;;;;;;107934;1248;22607;-83
2023/04/21 08:18:27;;;;;;;19.00;6.60;;;;;;;;;;108163;1253;25268;-84
2023/04/21 08:20:56;;;;;;;17.10;8.50;;;;;;;;;;108129;1248;22643;-84
2023/04/21 08:23:23;;;;;;;15.50;7.70;;;;;;;;;;107938;1251;25179;-84
2023/04/21 08:25:49;;;;;;;19.00;10.10;;;;;;;;;;108015;1248;23744;-79
2023/04/21 08:28:16;;;;;;;14.10;10.70;;;;;;;;;;108684;1252;22572;-84
2023/04/21 08:30:42;;;;;;;13.90;8.30;;;;;;;;;;108559;1248;22989;-84
2023/04/21 08:33:12;;;;;;;18.80;9.70;;;;;;;;;;108937;1247;23843;-84
2023/04/21 08:35:41;;;;;;;12.10;6.50;;;;;;;;;;109033;1248;23451;-77
2023/04/21 08:38:08;;;;;;;12.90;5.70;;;;;;;;;;107809;1251;22684;-84
2023/04/21 08:40:35;;;;;;;15.10;5.70;;;;;;;;;;107841;1251;23743;-84
2023/04/21 08:43:02;;;;;;;10.00;4.50;;;;;;;;;;107747;1248;25492;-83
2023/04/21 08:45:29;;;;;;;11.40;5.30;;;;;;;;;;110112;1247;22428;-79
2023/04/21 08:47:55;;;;;;;13.20;5.90;;;;;;;;;;109124;1248;22614;-79
2023/04/21 08:50:22;;;;;;;27.10;6.20;;;;;;;;;;108605;1256;25427;-80
2023/04/21 08:52:48;;;;;;;11.30;5.90;;;;;;;;;;108660;1253;23109;-80
2023/04/21 08:55:15;;;;;;;11.30;5.90;;;;;;;;;;110121;1247;22409;-80
2023/04/21 08:57:41;;;;;;;10.50;5.10;;;;;;;;;;109796;1251;22611;-80
2023/04/21 09:00:08;;;;;;;18.00;6.40;;;;;;;;;;108843;1248;25462;-80
2023/04/21 09:02:51;;;;;;;11.30;5.80;;;;;;;;;;108686;1248;24301;-80
2023/04/21 09:05:24;;;;;;;9.10;6.00;;;;;;;;;;108865;1249;25277;-80
2023/04/21 09:07:52;;;;;;;15.80;6.00;;;;;;;;;;108884;1247;24276;-80
2023/04/21 09:10:22;;;;;;;15.20;5.60;;;;;;;;;;108849;1247;22579;-80
2023/04/21 09:12:53;;;;;;;11.40;5.80;;;;;;;;;;108594;1253;23100;-79
2023/04/21 09:15:20;;;;;;;13.90;5.60;;;;;;;;;;108775;1248;25396;-79
2023/04/21 09:17:49;;;;;;;11.50;5.60;;;;;;;;;;108702;1253;22587;-79
2023/04/21 09:20:16;;;;;;;11.50;6.10;;;;;;;;;;108571;1250;22540;-79
2023/04/21 09:22:43;;;;;;;16.50;6.90;;;;;;;;;;108704;1253;24260;-79
2023/04/21 09:25:09;;;;;;;12.50;6.40;;;;;;;;;;108866;1250;22561;-79
2023/04/21 09:27:36;;;;;;;14.10;6.30;;;;;;;;;;108216;1252;22735;-78
2023/04/21 09:30:03;;;;;;;8.40;5.40;;;;;;;;;;108114;1248;22621;-80
2023/04/21 09:32:35;;;;;;;12.10;5.60;;;;;;;;;;108090;1248;22683;-78
2023/04/21 09:35:01;;;;;;;14.90;6.60;;;;;;;;;;109678;1253;23790;-79
2023/04/21 09:37:30;;;;;;;9.60;6.00;;;;;;;;;;108001;1248;25216;-79
2023/04/21 09:39:59;;;;;;;11.20;6.40;;;;;;;;;;107882;1254;25363;-80
2023/04/21 09:42:29;;;;;;;12.00;6.40;;;;;;;;;;107893;1248;22472;-80
2023/04/21 09:44:56;;;;;;;10.00;5.90;;;;;;;;;;108704;1248;22580;-80
2023/04/21 09:47:23;;;;;;;14.00;6.60;;;;;;;;;;108593;1253;25504;-80
2023/04/21 09:49:50;;;;;;;10.80;7.90;;;;;;;;;;108488;1251;22514;-79
2023/04/21 09:52:19;;;;;;;14.20;8.00;;;;;;;;;;108441;1251;22559;-79
2023/04/21 09:54:50;;;;;;;13.30;8.20;;;;;;;;;;108208;1249;22560;-79
2023/04/21 09:57:20;;;;;;;13.20;7.60;;;;;;;;;;107950;1253;24199;-80
2023/04/21 09:59:46;;;;;;;11.90;7.40;;;;;;;;;;107680;1253;22522;-79
2023/04/21 10:02:13;;;;;;;13.60;6.60;;;;;;;;;;107652;1253;24453;-79
2023/04/21 10:04:40;;;;;;;15.50;7.10;;;;;;;;;;107946;1247;24186;-79
2023/04/21 10:07:06;;;;;;;16.10;8.40;;;;;;;;;;107700;1247;24080;-79
2023/04/21 10:09:38;;;;;;;9.70;7.00;;;;;;;;;;107668;1247;22662;-79
2023/04/21 10:12:04;;;;;;;11.30;7.20;;;;;;;;;;107841;1253;25214;-79
2023/04/21 10:14:30;;;;;;;17.80;8.50;;;;;;;;;;107938;1253;24237;-79
2023/04/21 10:17:02;;;;;;;10.50;8.00;;;;;;;;;;107995;1254;23114;-79
2023/04/21 10:19:34;;;;;;;15.00;7.30;;;;;;;;;;107922;1253;24244;-79
2023/04/21 10:22:00;;;;;;;16.70;7.90;;;;;;;;;;108015;1251;22665;-79
2023/04/21 10:24:27;;;;;;;11.50;8.30;;;;;;;;;;107927;1253;22566;-79
2023/04/21 10:26:55;;;;;;;20.20;7.20;;;;;;;;;;107923;1248;22551;-79
2023/04/21 10:29:28;;;;;;;20.60;8.00;;;;;;;;;;107733;1248;25524;-79
2023/04/21 10:31:55;;;;;;;15.40;8.70;;;;;;;;;;107965;1248;24260;-79
2023/04/21 10:34:25;;;;;;;16.70;7.10;;;;;;;;;;108144;1253;22539;-79
2023/04/21 10:36:54;;;;;;;22.60;7.90;;;;;;;;;;107994;1253;22544;-79
2023/04/21 10:39:25;;;;;;;15.80;7.90;;;;;;;;;;107922;1249;22522;-78
2023/04/21 10:41:53;;;;;;;14.60;7.60;;;;;;;;;;107953;1248;24365;-79
2023/04/21 10:44:20;;;;;;;18.30;8.40;;;;;;;;;;108073;1251;22522;-79
2023/04/21 10:46:47;;;;;;;12.80;7.40;;;;;;;;;;108061;1248;22491;-79
2023/04/21 10:49:20;;;;;;;19.80;7.50;;;;;;;;;;107963;1253;25220;-79
2023/04/21 10:54:25;;;;;;;10.60;7.50;;;;;;;;;;108125;1248;22882;-79
2023/04/21 10:56:52;;;;;;;14.20;8.10;;;;;;;;;;108040;1251;23663;-79
2023/04/21 10:59:19;;;;;;;11.40;6.90;;;;;;;;;;108237;1248;23786;-79
2023/04/21 11:01:45;;;;;;;11.30;6.80;;;;;;;;;;108320;1254;24368;-79
2023/04/21 11:04:14;;;;;;;10.80;7.10;;;;;;;;;;110095;1247;23106;-80
2023/04/21 11:06:41;;;;;;;11.20;7.40;;;;;;;;;;110951;1248;22431;-80
2023/04/21 11:09:10;;;;;;;10.30;7.00;;;;;;;;;;110165;1253;22554;-79
2023/04/21 11:11:37;;;;;;;13.70;7.60;;;;;;;;;;108086;1253;23144;-79
2023/04/21 11:14:03;;;;;;;12.20;7.30;;;;;;;;;;107830;1254;22522;-79
2023/04/21 11:16:29;;;;;;;9.40;7.10;;;;;;;;;;108183;1247;24250;-79
2023/04/21 11:18:56;;;;;;;8.30;6.30;;;;;;;;;;107999;1248;23171;-79
2023/04/21 11:21:23;;;;;;;11.20;6.60;;;;;;;;;;108220;1248;22627;-80
2023/04/21 11:23:50;;;;;;;9.30;6.70;;;;;;;;;;108099;1253;25323;-79
2023/04/21 11:26:17;;;;;;;13.00;7.60;;;;;;;;;;108151;1248;24877;-79
2023/04/21 11:28:46;;;;;;;15.20;7.60;;;;;;;;;;108154;1248;22745;-79
2023/04/21 11:31:12;;;;;;;12.80;7.10;;;;;;;;;;108038;1252;22529;-79
2023/04/21 11:33:39;;;;;;;12.80;7.50;;;;;;;;;;108037;1253;25252;-79
2023/04/21 11:36:05;;;;;;;13.50;8.00;;;;;;;;;;108255;1248;22538;-79
2023/04/21 11:38:39;;;;;;;31.60;15.70;;;;;;;;;;107837;1250;22539;-80
2023/04/21 11:41:05;;;;;;;10.10;6.40;;;;;;;;;;108122;1252;22676;-79
2023/04/21 11:43:32;;;;;;;12.60;7.50;;;;;;;;;;108283;1251;25331;-80
2023/04/21 11:46:11;;;;;;;17.60;7.20;;;;;;;;;;108410;1248;22537;-79
2023/04/21 11:48:37;;;;;;;11.00;8.00;;;;;;;;;;108428;1251;25342;-79
2023/04/21 11:51:04;;;;;;;17.00;8.50;;;;;;;;;;108129;1248;22539;-78
2023/04/21 11:53:31;;;;;;;11.10;6.80;;;;;;;;;;108085;1247;22681;-79
2023/04/21 11:55:57;;;;;;;9.50;7.10;;;;;;;;;;108101;1248;22526;-80
2023/04/21 11:58:24;;;;;;;8.60;6.40;;;;;;;;;;108209;1248;25334;-79
2023/04/21 12:00:50;;;;;;;11.50;6.90;;;;;;;;;;107909;1248;22564;-80
2023/04/21 12:03:18;;;;;;;15.30;6.80;;;;;;;;;;108031;1248;22525;-79
2023/04/21 12:05:44;;;;;;;11.10;5.90;;;;;;;;;;108205;1248;22518;-80
2023/04/21 12:08:14;;;;;;;9.20;4.80;;;;;;;;;;108083;1247;22629;-79
2023/04/21 12:10:44;;;;;;;36.70;20.20;;;;;;;;;;108730;1253;23664;-79
2023/04/21 12:13:11;;;;;;;14.10;9.50;;;;;;;;;;107962;1247;22632;-79
2023/04/21 12:15:37;;;;;;;16.20;11.30;;;;;;;;;;108173;1247;22886;-81
2023/04/21 12:18:06;;;;;;;14.30;7.60;;;;;;;;;;108161;1251;24189;-80
2023/04/21 12:20:32;;;;;;;7.90;6.40;;;;;;;;;;107840;1254;24284;-79
2023/04/21 12:22:59;;;;;;;13.70;8.50;;;;;;;;;;107867;1247;22534;-79
2023/04/21 12:25:26;;;;;;;13.10;8.70;;;;;;;;;;108109;1248;22524;-78
2023/04/21 12:27:53;;;;;;;15.50;9.90;;;;;;;;;;108037;1248;24088;-79
2023/04/21 12:30:19;;;;;;;14.50;10.20;;;;;;;;;;107963;1248;22990;-79
2023/04/21 12:32:46;;;;;;;16.40;7.90;;;;;;;;;;107849;1253;22548;-79
2023/04/21 12:35:13;;;;;;;9.10;5.60;;;;;;;;;;107907;1248;24396;-79
2023/04/21 12:37:39;;;;;;;12.50;7.70;;;;;;;;;;108082;1247;24193;-79
2023/04/21 12:40:06;;;;;;;11.50;6.80;;;;;;;;;;108119;1248;23473;-78
2023/04/21 12:42:33;;;;;;;8.40;5.10;;;;;;;;;;107998;1252;25326;-79
2023/04/21 12:45:00;;;;;;;7.80;5.00;;;;;;;;;;107880;1253;22927;-79
2023/04/21 12:47:26;;;;;;;10.10;5.70;;;;;;;;;;108131;1248;22522;-79
2023/04/21 12:49:53;;;;;;;6.40;4.50;;;;;;;;;;108049;1248;22621;-79
2023/04/21 12:52:19;;;;;;;14.00;5.10;;;;;;;;;;108011;1247;22541;-79
2023/04/21 12:54:45;;;;;;;11.60;5.90;;;;;;;;;;107997;1248;22530;-80
2023/04/21 12:57:12;;;;;;;14.90;6.20;;;;;;;;;;107959;1250;25262;-80
2023/04/21 12:59:39;;;;;;;19.40;5.20;;;;;;;;;;108129;1248;23673;-80
2023/04/21 13:02:05;;;;;;;9.00;5.30;;;;;;;;;;107951;1247;22545;-80
2023/04/21 13:04:32;;;;;;;10.60;4.90;;;;;;;;;;108069;1247;22529;-79
2023/04/21 13:06:58;;;;;;;7.60;4.60;;;;;;;;;;108056;1248;22653;-80
2023/04/21 13:09:24;;;;;;;10.90;4.50;;;;;;;;;;108079;1253;22537;-80
2023/04/21 13:11:51;;;;;;;8.00;4.70;;;;;;;;;;107825;1253;22585;-80
2023/04/21 13:14:17;;;;;;;9.30;5.10;;;;;;;;;;107984;1251;24284;-80
2023/04/21 13:16:44;;;;;;;9.00;5.00;;;;;;;;;;108107;1248;25376;-80
2023/04/21 13:19:10;;;;;;;10.00;5.50;;;;;;;;;;108020;1247;22534;-80
2023/04/21 13:21:36;;;;;;;9.00;4.90;;;;;;;;;;108144;1248;22867;-79
2023/04/21 13:24:03;;;;;;;6.00;4.50;;;;;;;;;;107961;1247;22737;-80
2023/04/21 13:26:29;;;;;;;9.20;4.40;;;;;;;;;;108084;1248;22518;-80
2023/04/21 13:28:56;;;;;;;7.70;4.50;;;;;;;;;;108057;1247;22522;-81
2023/04/21 13:31:22;;;;;;;20.00;12.70;;;;;;;;;;109679;1247;22668;-80
2023/04/21 13:33:48;;;;;;;21.30;14.80;;;;;;;;;;108716;1247;23279;-81
2023/04/21 13:36:15;;;;;;;17.50;12.30;;;;;;;;;;108823;1247;24782;-80
2023/04/21 13:38:42;;;;;;;18.80;16.00;;;;;;;;;;108731;1248;22546;-79
2023/04/21 13:41:08;;;;;;;18.70;8.40;;;;;;;;;;108721;1252;23556;-80
2023/04/21 13:43:35;;;;;;;9.00;6.40;;;;;;;;;;108672;1247;22603;-79
2023/04/21 13:46:01;;;;;;;11.90;5.70;;;;;;;;;;110332;1247;22587;-80
2023/04/21 13:48:28;;;;;;;9.80;6.50;;;;;;;;;;108812;1248;23021;-79
2023/04/21 13:50:55;;;;;;;8.70;7.20;;;;;;;;;;108796;1247;24284;-80
2023/04/21 13:53:21;;;;;;;8.10;5.60;;;;;;;;;;108775;1247;24117;-81
2023/04/21 13:55:47;;;;;;;6.60;5.30;;;;;;;;;;108757;1247;58549;-80
2023/04/21 13:58:14;;;;;;;6.50;5.10;;;;;;;;;;108174;1247;163903;-80
2023/04/21 14:00:41;;;;;;;6.50;5.30;;;;;;;;;;108387;1248;59352;-80
2023/04/21 14:03:08;;;;;;;8.30;4.30;;;;;;;;;;108530;1247;23260;-80
2023/04/21 14:05:35;;;;;;;9.10;4.70;;;;;;;;;;108471;1248;36834;-80
2023/04/21 14:08:01;;;;;;;6.80;4.50;;;;;;;;;;107390;1251;61252;-80
2023/04/21 14:10:27;;;;;;;7.00;5.10;;;;;;;;;;107978;1247;61219;-80
2023/04/21 14:12:54;;;;;;;6.50;3.70;;;;;;;;;;108468;1247;24421;-80